sensor_id;sensor_type;location;lat;lon;timestamp;pressure;altitude;pressure_sealevel;temperature;humidity
70256;BME280;57669;52.624;-1.688;2023-01-26T00:02:24;102535.09;;;3.32;53.42
70256;BME280;57669;52.624;-1.688;2023-01-26T00:04:49;102539.88;;;3.77;52.94
70256;BME280;57669;52.624;-1.688;2023-01-26T00:07:14;102543.57;;;3.34;53.13
70256;BME280;57669;52.624;-1.688;2023-01-26T00:09:39;102544.68;;;3.22;53.67
70256;BME280;57669;52.624;-1.688;2023-01-26T00:12:05;102545.27;;;3.77;52.93
70256;BME280;57669;52.624;-1.688;2023-01-26T00:14:30;102541.01;;;3.39;53.72
70256;BME280;57669;52.624;-1.688;2023-01-26T00:16:55;102533.96;;;3.74;52.81
70256;BME280;57669;52.624;-1.688;2023-01-26T00:19:20;102533.80;;;3.66;53.35
70256;BME280;57669;52.624;-1.688;2023-01-26T00:21:46;102533.71;;;3.42;54.09
70256;BME280;57669;52.624;-1.688;2023-01-26T00:24:12;102529.20;;;3.42;53.75
70256;BME280;57669;52.624;-1.688;2023-01-26T00:26:37;102529.87;;;3.40;53.90
70256;BME280;57669;52.624;-1.688;2023-01-26T00:29:02;102526.01;;;3.71;52.74
70256;BME280;57669;52.624;-1.688;2023-01-26T00:31:28;102522.49;;;3.07;54.23
70256;BME280;57669;52.624;-1.688;2023-01-26T00:33:54;102528.39;;;3.00;54.27
70256;BME280;57669;52.624;-1.688;2023-01-26T00:36:19;102521.58;;;2.80;54.76
70256;BME280;57669;52.624;-1.688;2023-01-26T00:38:44;102525.23;;;2.79;55.19
70256;BME280;57669;52.624;-1.688;2023-01-26T00:41:10;102525.87;;;3.07;54.63
70256;BME280;57669;52.624;-1.688;2023-01-26T00:43:35;102522.50;;;3.13;54.30
70256;BME280;57669;52.624;-1.688;2023-01-26T00:46:00;102522.66;;;3.01;54.60
70256;BME280;57669;52.624;-1.688;2023-01-26T00:48:25;102522.56;;;3.19;54.16
70256;BME280;57669;52.624;-1.688;2023-01-26T00:50:51;102523.14;;;3.43;53.40
70256;BME280;57669;52.624;-1.688;2023-01-26T00:53:16;102528.29;;;3.14;54.03
70256;BME280;57669;52.624;-1.688;2023-01-26T00:55:41;102531.79;;;3.02;54.36
70256;BME280;57669;52.624;-1.688;2023-01-26T00:58:07;102530.29;;;2.64;54.58
70256;BME280;57669;52.624;-1.688;2023-01-26T01:00:33;102524.57;;;2.98;54.39
70256;BME280;57669;52.624;-1.688;2023-01-26T01:02:56;102528.89;;;3.44;53.29
70256;BME280;57669;52.624;-1.688;2023-01-26T01:05:22;102522.97;;;2.87;54.10
70256;BME280;57669;52.624;-1.688;2023-01-26T01:07:46;102520.42;;;2.91;54.67
70256;BME280;57669;52.624;-1.688;2023-01-26T01:10:12;102517.80;;;2.66;54.59
70256;BME280;57669;52.624;-1.688;2023-01-26T01:12:37;102522.12;;;2.97;54.35
70256;BME280;57669;52.624;-1.688;2023-01-26T01:15:02;102518.63;;;2.87;54.77
70256;BME280;57669;52.624;-1.688;2023-01-26T01:17:27;102520.09;;;2.56;55.25
70256;BME280;57669;52.624;-1.688;2023-01-26T01:19:52;102516.83;;;2.82;54.76
70256;BME280;57669;52.624;-1.688;2023-01-26T01:22:17;102522.78;;;2.80;54.88
70256;BME280;57669;52.624;-1.688;2023-01-26T01:24:43;102524.00;;;2.77;54.76
70256;BME280;57669;52.624;-1.688;2023-01-26T01:27:08;102525.73;;;2.33;55.73
70256;BME280;57669;52.624;-1.688;2023-01-26T01:29:34;102525.50;;;2.65;55.71
70256;BME280;57669;52.624;-1.688;2023-01-26T01:32:00;102526.99;;;2.52;55.54
70256;BME280;57669;52.624;-1.688;2023-01-26T01:34:25;102528.22;;;2.44;55.52
70256;BME280;57669;52.624;-1.688;2023-01-26T01:36:51;102532.91;;;2.74;55.57
70256;BME280;57669;52.624;-1.688;2023-01-26T01:39:16;102532.97;;;2.57;55.40
70256;BME280;57669;52.624;-1.688;2023-01-26T01:41:41;102534.48;;;2.78;54.56
70256;BME280;57669;52.624;-1.688;2023-01-26T01:44:11;102534.97;;;2.68;54.55
70256;BME280;57669;52.624;-1.688;2023-01-26T01:46:33;102528.99;;;2.75;54.14
70256;BME280;57669;52.624;-1.688;2023-01-26T01:49:00;102533.39;;;2.53;54.48
70256;BME280;57669;52.624;-1.688;2023-01-26T01:51:29;102530.00;;;2.50;54.67
70256;BME280;57669;52.624;-1.688;2023-01-26T01:53:50;102535.80;;;2.71;54.42
70256;BME280;57669;52.624;-1.688;2023-01-26T01:56:17;102541.12;;;2.35;55.51
70256;BME280;57669;52.624;-1.688;2023-01-26T01:58:41;102544.49;;;2.36;55.48
70256;BME280;57669;52.624;-1.688;2023-01-26T02:01:04;102546.83;;;2.32;55.57
70256;BME280;57669;52.624;-1.688;2023-01-26T02:03:31;102546.19;;;2.62;54.79
70256;BME280;57669;52.624;-1.688;2023-01-26T02:05:59;102542.98;;;2.50;55.17
70256;BME280;57669;52.624;-1.688;2023-01-26T02:08:25;102548.51;;;2.04;56.34
70256;BME280;57669;52.624;-1.688;2023-01-26T02:10:49;102553.91;;;2.16;56.90
70256;BME280;57669;52.624;-1.688;2023-01-26T02:13:12;102555.63;;;2.33;56.75
70256;BME280;57669;52.624;-1.688;2023-01-26T02:15:38;102557.81;;;1.93;57.21
70256;BME280;57669;52.624;-1.688;2023-01-26T02:18:04;102556.38;;;1.78;56.94
70256;BME280;57669;52.624;-1.688;2023-01-26T02:20:33;102556.54;;;2.26;56.60
70256;BME280;57669;52.624;-1.688;2023-01-26T02:22:57;102554.40;;;1.97;56.72
70256;BME280;57669;52.624;-1.688;2023-01-26T02:25:24;102548.67;;;2.15;56.27
70256;BME280;57669;52.624;-1.688;2023-01-26T02:27:44;102557.41;;;1.92;56.67
70256;BME280;57669;52.624;-1.688;2023-01-26T02:30:11;102550.55;;;2.42;55.30
70256;BME280;57669;52.624;-1.688;2023-01-26T02:32:35;102551.13;;;2.38;55.61
70256;BME280;57669;52.624;-1.688;2023-01-26T02:35:00;102546.64;;;2.76;55.13
70256;BME280;57669;52.624;-1.688;2023-01-26T02:37:25;102557.98;;;2.25;56.09
70256;BME280;57669;52.624;-1.688;2023-01-26T02:39:55;102555.64;;;2.22;56.11
70256;BME280;57669;52.624;-1.688;2023-01-26T02:42:16;102552.43;;;1.72;56.77
70256;BME280;57669;52.624;-1.688;2023-01-26T02:44:42;102557.46;;;2.18;55.69
70256;BME280;57669;52.624;-1.688;2023-01-26T02:47:11;102552.48;;;2.45;55.00
70256;BME280;57669;52.624;-1.688;2023-01-26T02:49:32;102556.09;;;2.65;54.55
70256;BME280;57669;52.624;-1.688;2023-01-26T02:51:58;102565.41;;;2.05;55.94
70256;BME280;57669;52.624;-1.688;2023-01-26T02:54:23;102567.42;;;1.96;56.15
70256;BME280;57669;52.624;-1.688;2023-01-26T02:56:48;102573.89;;;2.42;54.89
70256;BME280;57669;52.624;-1.688;2023-01-26T02:59:13;102580.62;;;2.60;54.54
70256;BME280;57669;52.624;-1.688;2023-01-26T03:01:39;102587.98;;;2.17;54.45
70256;BME280;57669;52.624;-1.688;2023-01-26T03:04:05;102588.34;;;2.19;55.01
70256;BME280;57669;52.624;-1.688;2023-01-26T03:06:30;102590.65;;;2.17;55.35
70256;BME280;57669;52.624;-1.688;2023-01-26T03:08:55;102585.37;;;1.96;55.86
70256;BME280;57669;52.624;-1.688;2023-01-26T03:11:20;102589.41;;;2.04;55.75
70256;BME280;57669;52.624;-1.688;2023-01-26T03:13:45;102587.23;;;2.11;55.66
70256;BME280;57669;52.624;-1.688;2023-01-26T03:16:10;102585.64;;;2.21;56.43
70256;BME280;57669;52.624;-1.688;2023-01-26T03:18:36;102581.22;;;1.68;56.46
70256;BME280;57669;52.624;-1.688;2023-01-26T03:21:03;102582.82;;;2.00;55.86
70256;BME280;57669;52.624;-1.688;2023-01-26T03:23:26;102574.99;;;1.93;56.00
70256;BME280;57669;52.624;-1.688;2023-01-26T03:25:52;102568.22;;;1.96;55.55
70256;BME280;57669;52.624;-1.688;2023-01-26T03:28:17;102563.27;;;1.93;55.78
70256;BME280;57669;52.624;-1.688;2023-01-26T03:30:42;102554.11;;;2.39;54.88
70256;BME280;57669;52.624;-1.688;2023-01-26T03:33:08;102558.17;;;2.26;54.74
70256;BME280;57669;52.624;-1.688;2023-01-26T03:35:33;102561.80;;;2.09;55.24
70256;BME280;57669;52.624;-1.688;2023-01-26T03:37:59;102566.38;;;2.51;55.46
70256;BME280;57669;52.624;-1.688;2023-01-26T03:40:24;102567.37;;;2.23;56.06
70256;BME280;57669;52.624;-1.688;2023-01-26T03:42:50;102568.25;;;2.13;55.99
70256;BME280;57669;52.624;-1.688;2023-01-26T03:45:15;102572.56;;;1.97;56.49
70256;BME280;57669;52.624;-1.688;2023-01-26T03:47:40;102572.12;;;2.34;55.98
70256;BME280;57669;52.624;-1.688;2023-01-26T03:50:06;102577.18;;;1.86;56.04
70256;BME280;57669;52.624;-1.688;2023-01-26T03:52:31;102581.29;;;2.35;54.74
70256;BME280;57669;52.624;-1.688;2023-01-26T03:54:56;102581.63;;;2.00;55.06
70256;BME280;57669;52.624;-1.688;2023-01-26T03:57:22;102581.12;;;2.39;54.16
70256;BME280;57669;52.624;-1.688;2023-01-26T03:59:47;102582.36;;;2.35;53.65
70256;BME280;57669;52.624;-1.688;2023-01-26T04:02:12;102583.99;;;2.35;53.95
70256;BME280;57669;52.624;-1.688;2023-01-26T04:04:37;102580.90;;;2.23;54.18
70256;BME280;57669;52.624;-1.688;2023-01-26T04:07:02;102585.54;;;1.77;54.71
70256;BME280;57669;52.624;-1.688;2023-01-26T04:09:28;102585.98;;;2.27;53.62
70256;BME280;57669;52.624;-1.688;2023-01-26T04:11:54;102584.29;;;2.27;53.72
70256;BME280;57669;52.624;-1.688;2023-01-26T04:14:19;102582.66;;;2.65;53.25
70256;BME280;57669;52.624;-1.688;2023-01-26T04:16:44;102595.80;;;2.59;53.20
70256;BME280;57669;52.624;-1.688;2023-01-26T04:19:10;102610.16;;;2.14;54.61
70256;BME280;57669;52.624;-1.688;2023-01-26T04:21:35;102614.96;;;2.33;54.12
70256;BME280;57669;52.624;-1.688;2023-01-26T04:24:02;102613.06;;;2.36;53.88
70256;BME280;57669;52.624;-1.688;2023-01-26T04:26:29;102614.79;;;1.86;53.90
70256;BME280;57669;52.624;-1.688;2023-01-26T04:28:52;102618.03;;;1.71;53.90
70256;BME280;57669;52.624;-1.688;2023-01-26T04:31:17;102619.74;;;2.71;53.02
70256;BME280;57669;52.624;-1.688;2023-01-26T04:33:43;102613.05;;;2.62;52.75
70256;BME280;57669;52.624;-1.688;2023-01-26T04:36:09;102622.89;;;1.90;53.70
70256;BME280;57669;52.624;-1.688;2023-01-26T04:38:33;102625.87;;;2.18;53.38
70256;BME280;57669;52.624;-1.688;2023-01-26T04:40:58;102627.80;;;1.83;53.47
70256;BME280;57669;52.624;-1.688;2023-01-26T04:43:24;102632.33;;;2.14;53.01
70256;BME280;57669;52.624;-1.688;2023-01-26T04:45:56;102633.58;;;2.64;51.89
70256;BME280;57669;52.624;-1.688;2023-01-26T04:48:15;102631.99;;;1.63;53.45
70256;BME280;57669;52.624;-1.688;2023-01-26T04:50:40;102631.11;;;2.24;52.34
70256;BME280;57669;52.624;-1.688;2023-01-26T04:53:05;102639.20;;;2.08;53.22
70256;BME280;57669;52.624;-1.688;2023-01-26T04:55:31;102637.43;;;2.01;53.73
70256;BME280;57669;52.624;-1.688;2023-01-26T04:57:56;102633.01;;;2.35;53.28
70256;BME280;57669;52.624;-1.688;2023-01-26T05:00:22;102632.43;;;1.82;54.93
70256;BME280;57669;52.624;-1.688;2023-01-26T05:02:47;102627.51;;;1.67;55.61
70256;BME280;57669;52.624;-1.688;2023-01-26T05:05:12;102626.96;;;2.03;54.41
70256;BME280;57669;52.624;-1.688;2023-01-26T05:07:38;102631.51;;;2.06;54.81
70256;BME280;57669;52.624;-1.688;2023-01-26T05:10:04;102630.14;;;2.40;54.16
70256;BME280;57669;52.624;-1.688;2023-01-26T05:12:29;102632.47;;;1.97;54.47
70256;BME280;57669;52.624;-1.688;2023-01-26T05:14:54;102631.62;;;2.29;55.12
70256;BME280;57669;52.624;-1.688;2023-01-26T05:17:20;102637.57;;;2.05;55.86
70256;BME280;57669;52.624;-1.688;2023-01-26T05:19:46;102635.52;;;2.01;56.46
70256;BME280;57669;52.624;-1.688;2023-01-26T05:22:11;102628.06;;;1.87;56.55
70256;BME280;57669;52.624;-1.688;2023-01-26T05:24:36;102622.82;;;1.74;57.07
70256;BME280;57669;52.624;-1.688;2023-01-26T05:27:06;102624.01;;;2.13;56.44
70256;BME280;57669;52.624;-1.688;2023-01-26T05:29:27;102633.16;;;1.78;56.72
70256;BME280;57669;52.624;-1.688;2023-01-26T05:31:52;102635.45;;;2.22;56.31
70256;BME280;57669;52.624;-1.688;2023-01-26T05:34:18;102633.70;;;1.90;57.00
70256;BME280;57669;52.624;-1.688;2023-01-26T05:36:43;102627.29;;;2.42;56.28
70256;BME280;57669;52.624;-1.688;2023-01-26T05:39:09;102628.92;;;2.16;56.53
70256;BME280;57669;52.624;-1.688;2023-01-26T05:41:34;102623.40;;;2.28;55.89
70256;BME280;57669;52.624;-1.688;2023-01-26T05:44:00;102620.98;;;2.20;56.32
70256;BME280;57669;52.624;-1.688;2023-01-26T05:46:25;102624.58;;;2.51;55.84
70256;BME280;57669;52.624;-1.688;2023-01-26T05:48:51;102623.02;;;2.24;56.53
70256;BME280;57669;52.624;-1.688;2023-01-26T05:51:16;102631.16;;;2.62;55.74
70256;BME280;57669;52.624;-1.688;2023-01-26T05:53:41;102633.82;;;2.29;56.02
70256;BME280;57669;52.624;-1.688;2023-01-26T05:56:07;102634.69;;;2.30;56.56
70256;BME280;57669;52.624;-1.688;2023-01-26T05:58:32;102645.52;;;1.91;57.50
70256;BME280;57669;52.624;-1.688;2023-01-26T06:01:03;102643.83;;;1.78;56.52
70256;BME280;57669;52.624;-1.688;2023-01-26T06:03:24;102643.73;;;1.67;57.70
70256;BME280;57669;52.624;-1.688;2023-01-26T06:05:52;102642.47;;;2.50;56.22
70256;BME280;57669;52.624;-1.688;2023-01-26T06:08:15;102639.78;;;3.01;55.09
70256;BME280;57669;52.624;-1.688;2023-01-26T06:10:40;102647.31;;;2.25;55.62
70256;BME280;57669;52.624;-1.688;2023-01-26T06:13:06;102650.96;;;2.70;54.76
70256;BME280;57669;52.624;-1.688;2023-01-26T06:15:31;102652.08;;;2.68;55.25
70256;BME280;57669;52.624;-1.688;2023-01-26T06:17:59;102663.33;;;2.47;55.13
70256;BME280;57669;52.624;-1.688;2023-01-26T06:20:22;102659.35;;;3.18;53.71
70256;BME280;57669;52.624;-1.688;2023-01-26T06:22:47;102657.15;;;2.79;54.63
70256;BME280;57669;52.624;-1.688;2023-01-26T06:25:13;102643.81;;;3.13;53.69
70256;BME280;57669;52.624;-1.688;2023-01-26T06:27:38;102645.09;;;3.14;53.73
70256;BME280;57669;52.624;-1.688;2023-01-26T06:30:04;102644.94;;;3.02;54.00
70256;BME280;57669;52.624;-1.688;2023-01-26T06:32:28;102647.72;;;2.60;54.77
70256;BME280;57669;52.624;-1.688;2023-01-26T06:34:54;102658.93;;;2.70;54.24
70256;BME280;57669;52.624;-1.688;2023-01-26T06:37:19;102657.00;;;2.73;54.84
70256;BME280;57669;52.624;-1.688;2023-01-26T06:39:45;102655.18;;;2.43;55.37
70256;BME280;57669;52.624;-1.688;2023-01-26T06:42:10;102660.06;;;2.56;55.16
70256;BME280;57669;52.624;-1.688;2023-01-26T06:44:35;102663.37;;;2.53;55.34
70256;BME280;57669;52.624;-1.688;2023-01-26T06:47:01;102664.62;;;2.63;55.10
70256;BME280;57669;52.624;-1.688;2023-01-26T06:49:27;102664.23;;;2.46;55.47
70256;BME280;57669;52.624;-1.688;2023-01-26T06:51:56;102663.88;;;2.32;56.18
70256;BME280;57669;52.624;-1.688;2023-01-26T06:54:18;102669.19;;;2.94;55.60
70256;BME280;57669;52.624;-1.688;2023-01-26T06:56:43;102661.14;;;2.42;55.76
70256;BME280;57669;52.624;-1.688;2023-01-26T06:59:09;102665.55;;;2.71;56.38
70256;BME280;57669;52.624;-1.688;2023-01-26T07:01:36;102676.72;;;2.72;55.76
70256;BME280;57669;52.624;-1.688;2023-01-26T07:03:59;102681.43;;;2.53;56.03
70256;BME280;57669;52.624;-1.688;2023-01-26T07:06:24;102684.03;;;2.70;55.55
70256;BME280;57669;52.624;-1.688;2023-01-26T07:08:50;102685.19;;;2.34;55.87
70256;BME280;57669;52.624;-1.688;2023-01-26T07:11:15;102687.11;;;2.54;55.97
70256;BME280;57669;52.624;-1.688;2023-01-26T07:13:40;102689.52;;;2.05;56.67
70256;BME280;57669;52.624;-1.688;2023-01-26T07:16:08;102691.77;;;2.72;55.42
70256;BME280;57669;52.624;-1.688;2023-01-26T07:18:31;102687.19;;;2.61;55.52
70256;BME280;57669;52.624;-1.688;2023-01-26T07:20:59;102682.60;;;3.08;55.11
70256;BME280;57669;52.624;-1.688;2023-01-26T07:23:22;102683.50;;;2.80;55.33
70256;BME280;57669;52.624;-1.688;2023-01-26T07:25:47;102687.83;;;2.31;56.22
70256;BME280;57669;52.624;-1.688;2023-01-26T07:28:13;102689.01;;;2.34;56.99
70256;BME280;57669;52.624;-1.688;2023-01-26T07:30:38;102687.40;;;2.17;56.45
70256;BME280;57669;52.624;-1.688;2023-01-26T07:33:03;102686.09;;;2.24;57.20
70256;BME280;57669;52.624;-1.688;2023-01-26T07:35:28;102683.91;;;2.18;57.37
70256;BME280;57669;52.624;-1.688;2023-01-26T07:37:54;102685.31;;;2.32;57.25
70256;BME280;57669;52.624;-1.688;2023-01-26T07:40:19;102682.89;;;2.08;56.57
70256;BME280;57669;52.624;-1.688;2023-01-26T07:42:44;102685.21;;;2.03;57.37
70256;BME280;57669;52.624;-1.688;2023-01-26T07:45:10;102685.86;;;2.17;57.39
70256;BME280;57669;52.624;-1.688;2023-01-26T07:47:35;102682.01;;;2.19;57.49
70256;BME280;57669;52.624;-1.688;2023-01-26T07:50:01;102680.35;;;1.98;57.99
70256;BME280;57669;52.624;-1.688;2023-01-26T07:52:26;102679.18;;;2.08;57.84
70256;BME280;57669;52.624;-1.688;2023-01-26T07:54:52;102684.70;;;2.01;57.45
70256;BME280;57669;52.624;-1.688;2023-01-26T07:57:17;102692.24;;;2.31;57.41
70256;BME280;57669;52.624;-1.688;2023-01-26T07:59:42;102693.65;;;2.11;57.59
70256;BME280;57669;52.624;-1.688;2023-01-26T08:02:08;102701.21;;;2.21;57.34
70256;BME280;57669;52.624;-1.688;2023-01-26T08:04:33;102704.97;;;2.37;56.74
70256;BME280;57669;52.624;-1.688;2023-01-26T08:06:59;102713.02;;;2.21;56.97
70256;BME280;57669;52.624;-1.688;2023-01-26T08:09:24;102714.80;;;2.80;55.80
70256;BME280;57669;52.624;-1.688;2023-01-26T08:11:50;102718.55;;;2.46;57.16
70256;BME280;57669;52.624;-1.688;2023-01-26T08:14:15;102722.04;;;2.58;57.39
70256;BME280;57669;52.624;-1.688;2023-01-26T08:16:41;102725.08;;;2.49;57.41
70256;BME280;57669;52.624;-1.688;2023-01-26T08:19:06;102725.61;;;2.56;57.02
70256;BME280;57669;52.624;-1.688;2023-01-26T08:21:32;102731.07;;;2.45;57.31
70256;BME280;57669;52.624;-1.688;2023-01-26T08:23:57;102733.91;;;2.81;56.98
70256;BME280;57669;52.624;-1.688;2023-01-26T08:26:23;102729.41;;;2.32;58.13
70256;BME280;57669;52.624;-1.688;2023-01-26T08:28:48;102733.84;;;2.47;57.86
70256;BME280;57669;52.624;-1.688;2023-01-26T08:31:15;102739.76;;;2.51;58.08
70256;BME280;57669;52.624;-1.688;2023-01-26T08:33:41;102737.53;;;2.29;58.40
70256;BME280;57669;52.624;-1.688;2023-01-26T08:36:07;102736.88;;;2.31;58.45
70256;BME280;57669;52.624;-1.688;2023-01-26T08:38:30;102738.88;;;2.47;58.26
70256;BME280;57669;52.624;-1.688;2023-01-26T08:40:55;102737.75;;;2.52;58.10
70256;BME280;57669;52.624;-1.688;2023-01-26T08:43:21;102739.84;;;2.72;57.50
70256;BME280;57669;52.624;-1.688;2023-01-26T08:45:46;102730.77;;;2.43;58.38
70256;BME280;57669;52.624;-1.688;2023-01-26T08:48:12;102739.61;;;2.62;57.81
70256;BME280;57669;52.624;-1.688;2023-01-26T08:50:37;102743.09;;;2.38;57.47
70256;BME280;57669;52.624;-1.688;2023-01-26T08:53:04;102745.53;;;2.59;57.55
70256;BME280;57669;52.624;-1.688;2023-01-26T08:55:28;102753.83;;;2.69;56.74
70256;BME280;57669;52.624;-1.688;2023-01-26T08:57:58;102753.00;;;2.75;56.54
70256;BME280;57669;52.624;-1.688;2023-01-26T09:00:19;102751.55;;;2.88;56.41
70256;BME280;57669;52.624;-1.688;2023-01-26T09:02:44;102752.98;;;2.37;57.37
70256;BME280;57669;52.624;-1.688;2023-01-26T09:05:09;102760.23;;;2.78;56.75
70256;BME280;57669;52.624;-1.688;2023-01-26T09:07:34;102757.93;;;3.25;55.82
70256;BME280;57669;52.624;-1.688;2023-01-26T09:09:59;102756.54;;;3.31;55.45
70256;BME280;57669;52.624;-1.688;2023-01-26T09:12:25;102755.13;;;3.63;55.18
70256;BME280;57669;52.624;-1.688;2023-01-26T09:14:50;102757.45;;;3.31;56.42
70256;BME280;57669;52.624;-1.688;2023-01-26T09:17:16;102758.33;;;3.28;56.53
70256;BME280;57669;52.624;-1.688;2023-01-26T09:19:41;102760.09;;;3.68;55.77
70256;BME280;57669;52.624;-1.688;2023-01-26T09:22:06;102756.53;;;2.90;55.94
70256;BME280;57669;52.624;-1.688;2023-01-26T09:24:31;102744.39;;;4.09;54.63
70256;BME280;57669;52.624;-1.688;2023-01-26T09:26:56;102744.54;;;3.74;55.15
70256;BME280;57669;52.624;-1.688;2023-01-26T09:29:21;102751.19;;;3.59;55.19
70256;BME280;57669;52.624;-1.688;2023-01-26T09:31:47;102747.84;;;3.80;54.33
70256;BME280;57669;52.624;-1.688;2023-01-26T09:34:12;102760.23;;;3.42;55.31
70256;BME280;57669;52.624;-1.688;2023-01-26T09:36:37;102767.90;;;3.86;55.10
70256;BME280;57669;52.624;-1.688;2023-01-26T09:39:03;102769.85;;;3.61;55.32
70256;BME280;57669;52.624;-1.688;2023-01-26T09:41:42;102769.95;;;3.39;55.50
70256;BME280;57669;52.624;-1.688;2023-01-26T09:43:57;102763.56;;;4.36;54.46
70256;BME280;57669;52.624;-1.688;2023-01-26T09:46:23;102770.17;;;3.46;55.98
70256;BME280;57669;52.624;-1.688;2023-01-26T09:48:52;102765.12;;;3.56;56.06
70256;BME280;57669;52.624;-1.688;2023-01-26T09:51:14;102763.38;;;3.81;54.99
70256;BME280;57669;52.624;-1.688;2023-01-26T09:53:43;102764.20;;;3.14;56.05
70256;BME280;57669;52.624;-1.688;2023-01-26T09:56:02;102771.45;;;3.43;55.91
70256;BME280;57669;52.624;-1.688;2023-01-26T09:58:33;102760.76;;;4.15;55.13
70256;BME280;57669;52.624;-1.688;2023-01-26T10:00:58;102754.94;;;3.66;54.52
70256;BME280;57669;52.624;-1.688;2023-01-26T10:03:25;102768.31;;;4.15;54.18
70256;BME280;57669;52.624;-1.688;2023-01-26T10:05:47;102763.78;;;4.41;53.58
70256;BME280;57669;52.624;-1.688;2023-01-26T10:08:11;102773.59;;;4.40;53.26
70256;BME280;57669;52.624;-1.688;2023-01-26T10:10:39;102772.12;;;4.66;53.75
70256;BME280;57669;52.624;-1.688;2023-01-26T10:13:01;102770.94;;;4.85;53.45
70256;BME280;57669;52.624;-1.688;2023-01-26T10:15:30;102777.34;;;4.76;52.96
70256;BME280;57669;52.624;-1.688;2023-01-26T10:17:53;102778.35;;;4.73;53.18
70256;BME280;57669;52.624;-1.688;2023-01-26T10:20:26;102786.91;;;5.06;52.79
70256;BME280;57669;52.624;-1.688;2023-01-26T10:22:45;102793.05;;;5.05;52.45
70256;BME280;57669;52.624;-1.688;2023-01-26T10:25:14;102796.58;;;5.21;52.55
70256;BME280;57669;52.624;-1.688;2023-01-26T10:27:35;102802.73;;;5.34;51.62
70256;BME280;57669;52.624;-1.688;2023-01-26T10:29:59;102808.43;;;5.61;51.54
70256;BME280;57669;52.624;-1.688;2023-01-26T10:32:25;102801.54;;;5.16;51.69
70256;BME280;57669;52.624;-1.688;2023-01-26T10:34:50;102802.91;;;5.71;51.04
70256;BME280;57669;52.624;-1.688;2023-01-26T10:37:20;102805.13;;;5.36;51.47
70256;BME280;57669;52.624;-1.688;2023-01-26T10:42:12;102804.27;;;5.14;51.94
70256;BME280;57669;52.624;-1.688;2023-01-26T10:44:33;102808.02;;;5.74;50.39
70256;BME280;57669;52.624;-1.688;2023-01-26T10:47:03;102802.59;;;5.62;50.54
70256;BME280;57669;52.624;-1.688;2023-01-26T10:49:23;102803.54;;;4.96;51.50
70256;BME280;57669;52.624;-1.688;2023-01-26T10:54:20;102808.75;;;5.38;51.45
70256;BME280;57669;52.624;-1.688;2023-01-26T10:56:43;102806.24;;;5.36;51.25
70256;BME280;57669;52.624;-1.688;2023-01-26T10:59:07;102796.43;;;5.55;51.02
70256;BME280;57669;52.624;-1.688;2023-01-26T11:04:03;102803.19;;;4.94;52.72
70256;BME280;57669;52.624;-1.688;2023-01-26T11:06:26;102804.64;;;5.48;52.39
70256;BME280;57669;52.624;-1.688;2023-01-26T11:08:46;102800.88;;;4.82;52.50
70256;BME280;57669;52.624;-1.688;2023-01-26T11:11:22;102796.69;;;4.29;53.87
70256;BME280;57669;52.624;-1.688;2023-01-26T11:13:37;102799.26;;;5.00;52.83
70256;BME280;57669;52.624;-1.688;2023-01-26T11:16:08;102791.38;;;4.81;53.18
70256;BME280;57669;52.624;-1.688;2023-01-26T11:18:36;102789.26;;;5.19;52.80
70256;BME280;57669;52.624;-1.688;2023-01-26T11:20:57;102793.82;;;5.35;52.14
70256;BME280;57669;52.624;-1.688;2023-01-26T11:23:28;102797.76;;;5.41;52.13
70256;BME280;57669;52.624;-1.688;2023-01-26T11:28:23;102803.48;;;5.28;51.97
70256;BME280;57669;52.624;-1.688;2023-01-26T11:30:44;102806.09;;;5.81;51.87
70256;BME280;57669;52.624;-1.688;2023-01-26T11:33:09;102800.45;;;5.44;52.25
70256;BME280;57669;52.624;-1.688;2023-01-26T11:35:33;102800.19;;;5.29;52.88
70256;BME280;57669;52.624;-1.688;2023-01-26T11:37:59;102798.00;;;5.39;53.25
70256;BME280;57669;52.624;-1.688;2023-01-26T11:40:25;102802.55;;;5.83;53.02
70256;BME280;57669;52.624;-1.688;2023-01-26T11:42:46;102798.98;;;6.10;51.79
70256;BME280;57669;52.624;-1.688;2023-01-26T11:45:19;102800.69;;;6.08;51.82
70256;BME280;57669;52.624;-1.688;2023-01-26T11:47:46;102796.79;;;5.78;52.86
70256;BME280;57669;52.624;-1.688;2023-01-26T11:50:13;102794.87;;;6.10;52.07
70256;BME280;57669;52.624;-1.688;2023-01-26T11:52:33;102791.77;;;6.76;51.02
70256;BME280;57669;52.624;-1.688;2023-01-26T11:55:06;102787.31;;;6.59;51.30
70256;BME280;57669;52.624;-1.688;2023-01-26T11:57:24;102790.67;;;6.66;50.86
70256;BME280;57669;52.624;-1.688;2023-01-26T11:59:45;102789.47;;;6.27;51.50
70256;BME280;57669;52.624;-1.688;2023-01-26T12:02:22;102786.37;;;6.59;51.42
70256;BME280;57669;52.624;-1.688;2023-01-26T12:04:35;102784.53;;;6.78;51.54
70256;BME280;57669;52.624;-1.688;2023-01-26T12:07:02;102789.75;;;6.80;51.34
70256;BME280;57669;52.624;-1.688;2023-01-26T12:09:29;102780.69;;;6.82;51.47
70256;BME280;57669;52.624;-1.688;2023-01-26T12:11:53;102775.14;;;6.67;50.77
70256;BME280;57669;52.624;-1.688;2023-01-26T12:14:19;102775.87;;;6.61;49.86
70256;BME280;57669;52.624;-1.688;2023-01-26T12:16:49;102772.59;;;7.21;48.98
70256;BME280;57669;52.624;-1.688;2023-01-26T12:19:12;102771.35;;;7.56;48.46
70256;BME280;57669;52.624;-1.688;2023-01-26T12:21:33;102771.64;;;7.45;48.31
70256;BME280;57669;52.624;-1.688;2023-01-26T12:24:00;102765.53;;;7.24;48.73
70256;BME280;57669;52.624;-1.688;2023-01-26T12:26:25;102760.10;;;6.58;50.06
70256;BME280;57669;52.624;-1.688;2023-01-26T12:28:54;102760.57;;;7.67;49.11
70256;BME280;57669;52.624;-1.688;2023-01-26T12:31:18;102764.72;;;7.36;49.17
70256;BME280;57669;52.624;-1.688;2023-01-26T12:33:40;102763.98;;;7.64;48.39
70256;BME280;57669;52.624;-1.688;2023-01-26T12:36:15;102753.30;;;7.49;48.25
70256;BME280;57669;52.624;-1.688;2023-01-26T12:38:43;102753.03;;;7.48;48.55
70256;BME280;57669;52.624;-1.688;2023-01-26T12:41:04;102753.53;;;7.67;48.93
70256;BME280;57669;52.624;-1.688;2023-01-26T12:45:50;102744.03;;;7.75;48.21
70256;BME280;57669;52.624;-1.688;2023-01-26T12:48:16;102743.12;;;7.69;48.29
70256;BME280;57669;52.624;-1.688;2023-01-26T12:50:43;102744.33;;;7.95;48.22
70256;BME280;57669;52.624;-1.688;2023-01-26T12:53:08;102749.32;;;7.43;49.96